createdAt,value
2022-08-17T00:01:52.381Z,99.90
2022-08-17T00:04:19.771Z,99.90
2022-08-17T00:06:49.069Z,99.90
2022-08-17T00:09:18.820Z,99.90
2022-08-17T00:12:42.216Z,99.90
2022-08-17T00:14:34.025Z,99.90
2022-08-17T00:17:00.813Z,99.90
2022-08-17T00:19:27.547Z,99.90
2022-08-17T00:22:32.891Z,99.90
2022-08-17T00:24:44.458Z,99.90
2022-08-17T00:27:11.200Z,99.90
2022-08-17T00:29:37.868Z,99.90
2022-08-17T00:33:15.479Z,99.90
2022-08-17T00:34:51.603Z,99.90
2022-08-17T00:37:18.287Z,99.90
2022-08-17T00:39:44.998Z,99.90
2022-08-17T00:42:17.514Z,99.90
2022-08-17T00:44:44.594Z,99.90
2022-08-17T00:47:11.268Z,99.90
2022-08-17T00:49:37.936Z,99.90
2022-08-17T00:52:15.220Z,99.90
2022-08-17T00:54:45.044Z,99.90
2022-08-17T00:57:18.323Z,99.90
2022-08-17T01:00:01.653Z,99.90
2022-08-17T01:02:34.439Z,99.90
2022-08-17T01:05:10.306Z,99.90
2022-08-17T01:07:38.104Z,99.90
2022-08-17T01:10:08.523Z,99.90
2022-08-17T01:12:56.624Z,99.90
2022-08-17T01:15:23.815Z,99.90
2022-08-17T01:17:50.519Z,99.90
2022-08-17T01:20:17.401Z,99.90
2022-08-17T01:22:44.111Z,99.90
2022-08-17T01:25:12.666Z,99.90
2022-08-17T01:27:40.883Z,99.90
2022-08-17T01:30:58.401Z,99.90
2022-08-17T01:32:57.847Z,99.90
2022-08-17T01:35:24.655Z,99.90
2022-08-17T01:37:52.022Z,99.90
2022-08-17T01:40:32.876Z,99.90
2022-08-17T01:43:01.266Z,99.90
2022-08-17T01:45:32.089Z,99.90
2022-08-17T01:47:58.859Z,99.90
2022-08-17T01:50:29.276Z,99.90
2022-08-17T01:53:03.815Z,99.90
2022-08-17T01:55:37.950Z,99.90
2022-08-17T01:58:08.866Z,99.90
2022-08-17T02:00:59.704Z,99.90
2022-08-17T02:03:25.271Z,99.90
2022-08-17T02:05:53.244Z,99.90
2022-08-17T02:08:21.025Z,99.90
2022-08-17T02:11:13.794Z,99.90
2022-08-17T02:13:40.602Z,99.90
2022-08-17T02:16:07.310Z,99.90
2022-08-17T02:18:34.379Z,99.90
2022-08-17T02:21:01.449Z,99.90
2022-08-17T02:23:32.096Z,99.90
2022-08-17T02:26:00.150Z,99.90
2022-08-17T02:28:28.390Z,99.90
2022-08-17T02:31:00.746Z,99.90
2022-08-17T02:33:42.847Z,99.90
2022-08-17T02:36:12.496Z,99.90
2022-08-17T02:38:40.617Z,99.90
2022-08-17T02:41:07.385Z,99.90
2022-08-17T02:43:34.150Z,99.90
2022-08-17T02:46:00.935Z,99.90
2022-08-17T02:48:31.611Z,99.90
2022-08-17T02:50:59.826Z,99.90
2022-08-17T02:53:27.199Z,99.90
2022-08-17T02:55:53.878Z,99.90
2022-08-17T02:58:34.786Z,99.90
2022-08-17T03:01:06.958Z,99.90
2022-08-17T03:03:34.607Z,99.90
2022-08-17T03:06:01.871Z,99.90
2022-08-17T03:08:29.146Z,99.90
2022-08-17T03:10:56.248Z,99.90
2022-08-17T03:13:23.378Z,99.90
2022-08-17T03:15:50.654Z,99.90
2022-08-17T03:18:24.874Z,99.90
2022-08-17T03:20:58.622Z,99.90
2022-08-17T03:23:26.294Z,99.90
2022-08-17T03:25:54.875Z,99.90
2022-08-17T03:28:23.051Z,99.90
2022-08-17T03:30:51.180Z,99.90
2022-08-17T03:33:18.529Z,99.90
2022-08-17T03:35:45.547Z,99.90
2022-08-17T03:38:15.009Z,99.90
2022-08-17T03:40:58.855Z,99.90
2022-08-17T03:43:28.794Z,99.90
2022-08-17T03:46:34.448Z,99.90
2022-08-17T03:49:29.799Z,99.90
2022-08-17T03:52:16.360Z,99.90
2022-08-17T03:55:03.367Z,99.90
2022-08-17T03:57:30.979Z,99.90
2022-08-17T03:59:57.805Z,99.90
2022-08-17T04:02:30.105Z,99.90
2022-08-17T04:04:57.281Z,99.90
2022-08-17T04:07:27.425Z,99.90
2022-08-17T04:09:54.471Z,99.90
2022-08-17T04:12:24.923Z,99.90
2022-08-17T04:14:54.727Z,99.90
2022-08-17T04:17:29.464Z,99.90
2022-08-17T04:19:57.034Z,99.90
2022-08-17T04:22:30.310Z,99.90
2022-08-17T04:25:05.894Z,99.90
2022-08-17T04:27:32.639Z,99.90
2022-08-17T04:29:59.302Z,99.90
2022-08-17T04:33:04.252Z,99.90
2022-08-17T04:35:12.662Z,99.90
2022-08-17T04:37:39.337Z,99.90
2022-08-17T04:40:26.482Z,99.90
2022-08-17T04:43:09.162Z,99.90
2022-08-17T04:45:56.889Z,99.90
2022-08-17T04:48:29.608Z,99.90
2022-08-17T04:51:03.095Z,99.90
2022-08-17T04:53:29.812Z,99.90
2022-08-17T04:55:58.792Z,99.90
2022-08-17T04:58:25.635Z,99.90
2022-08-17T05:00:52.596Z,99.90
2022-08-17T05:03:19.374Z,99.90
2022-08-17T05:05:50.576Z,99.90
2022-08-17T05:08:19.463Z,99.90
2022-08-17T05:10:47.471Z,99.90
2022-08-17T05:13:20.444Z,99.90
2022-08-17T05:15:49.186Z,99.90
2022-08-17T05:18:16.743Z,99.90
2022-08-17T05:20:44.184Z,99.90
2022-08-17T05:23:13.828Z,99.90
2022-08-17T05:25:47.324Z,99.90
2022-08-17T05:28:16.220Z,99.90
2022-08-17T05:30:44.578Z,99.90
2022-08-17T05:33:44.513Z,99.90
2022-08-17T05:36:41.707Z,99.90
2022-08-17T05:39:01.311Z,99.90
2022-08-17T05:41:27.969Z,99.90
2022-08-17T05:43:56.514Z,99.90
2022-08-17T05:46:25.018Z,99.90
2022-08-17T05:49:02.370Z,99.90
2022-08-17T05:52:06.597Z,99.90
2022-08-17T05:55:04.929Z,99.90
2022-08-17T05:57:53.516Z,99.90
2022-08-17T06:00:30.166Z,99.90
2022-08-17T06:03:12.722Z,99.90
2022-08-17T06:05:58.805Z,99.90
2022-08-17T06:08:51.490Z,99.90
2022-08-17T06:11:30.524Z,99.90
2022-08-17T06:14:16.201Z,99.90
2022-08-17T06:16:49.352Z,99.90
2022-08-17T06:19:22.934Z,99.90
2022-08-17T06:21:54.210Z,99.90
2022-08-17T06:24:23.895Z,99.90
2022-08-17T06:26:51.367Z,99.90
2022-08-17T06:29:25.580Z,99.90
2022-08-17T06:31:52.295Z,99.90
2022-08-17T06:34:21.688Z,99.90
2022-08-17T06:37:39.301Z,99.90
2022-08-17T06:40:38.747Z,99.90
2022-08-17T06:43:20.392Z,99.90
2022-08-17T06:45:54.228Z,99.90
2022-08-17T06:48:52.259Z,99.90
2022-08-17T06:51:29.863Z,99.90
2022-08-17T06:54:06.425Z,99.90
2022-08-17T06:56:53.780Z,99.90
2022-08-17T06:59:54.529Z,99.90
2022-08-17T07:02:52.703Z,99.90
2022-08-17T07:05:24.285Z,99.90
2022-08-17T07:08:02.680Z,99.90
2022-08-17T07:10:52.574Z,99.90
2022-08-17T07:13:41.165Z,99.90
2022-08-17T07:16:28.198Z,99.90
2022-08-17T07:18:56.910Z,99.90
2022-08-17T07:21:38.544Z,99.90
2022-08-17T07:24:41.808Z,99.90
2022-08-17T07:27:22.012Z,99.90
2022-08-17T07:29:50.815Z,99.90
2022-08-17T07:32:23.479Z,99.90
2022-08-17T07:35:04.522Z,99.90
2022-08-17T07:37:33.341Z,99.90
2022-08-17T07:40:33.880Z,99.90
2022-08-17T07:43:06.478Z,99.90
2022-08-17T07:45:53.994Z,99.90
2022-08-17T07:48:25.767Z,99.90
2022-08-17T07:50:55.856Z,99.90
2022-08-17T07:53:25.974Z,99.90
2022-08-17T07:55:53.867Z,99.90
2022-08-17T07:58:23.698Z,99.90
2022-08-17T08:01:23.137Z,99.90
2022-08-17T08:03:52.456Z,99.90
2022-08-17T08:06:24.901Z,99.90
2022-08-17T08:08:54.944Z,99.90
2022-08-17T08:11:38.336Z,99.90
2022-08-17T08:14:31.168Z,99.90
2022-08-17T08:17:04.339Z,99.90
2022-08-17T08:19:33.286Z,99.90
2022-08-17T08:22:06.060Z,99.90
2022-08-17T08:24:57.853Z,99.90
2022-08-17T08:27:55.054Z,99.90
2022-08-17T08:30:22.792Z,99.90
2022-08-17T08:33:00.085Z,99.90
2022-08-17T08:36:02.812Z,98.70
2022-08-17T08:38:48.041Z,98.90
2022-08-17T08:41:34.011Z,97.20
2022-08-17T08:44:59.702Z,95.10
2022-08-17T08:47:12.028Z,95.10
2022-08-17T08:50:05.340Z,94.70
2022-08-17T08:52:59.783Z,94.20
2022-08-17T08:55:49.405Z,93.10
2022-08-17T08:58:42.289Z,92.40
2022-08-17T09:01:20.878Z,91.20
2022-08-17T09:04:21.781Z,91.80
2022-08-17T09:06:58.851Z,91.60
2022-08-17T09:09:59.282Z,92.80
2022-08-17T09:12:36.645Z,91.60
2022-08-17T09:15:12.870Z,92.20
2022-08-17T09:17:49.473Z,92.00
2022-08-17T09:20:30.112Z,92.70
2022-08-17T09:23:03.365Z,92.50
2022-08-17T09:25:34.960Z,91.10
2022-08-17T09:28:06.464Z,91.40
2022-08-17T09:30:43.942Z,91.40
2022-08-17T09:33:13.894Z,91.80
2022-08-17T09:35:48.134Z,92.80
2022-08-17T09:38:41.543Z,92.90
2022-08-17T09:41:25.032Z,92.60
2022-08-17T09:44:02.516Z,90.60
2022-08-17T09:46:35.952Z,87.50
2022-08-17T09:49:15.977Z,85.10
2022-08-17T09:51:57.082Z,81.90
2022-08-17T09:54:39.039Z,83.20
2022-08-17T09:57:41.575Z,84.10
2022-08-17T10:00:24.948Z,80.80
2022-08-17T10:03:29.358Z,83.10
2022-08-17T10:06:14.798Z,79.90
2022-08-17T10:09:06.458Z,78.60
2022-08-17T10:11:57.840Z,80.60
2022-08-17T10:14:44.062Z,81.30
2022-08-17T10:17:30.391Z,83.80
2022-08-17T10:20:12.555Z,85.10
2022-08-17T10:23:15.221Z,85.00
2022-08-17T10:26:10.400Z,84.00
2022-08-17T10:28:48.019Z,81.80
2022-08-17T10:31:40.047Z,81.70
2022-08-17T10:34:38.634Z,81.00
2022-08-17T10:37:28.320Z,79.90
2022-08-17T10:40:07.504Z,79.90
2022-08-17T10:42:45.735Z,78.90
2022-08-17T10:45:26.147Z,77.10
2022-08-17T10:48:05.651Z,77.50
2022-08-17T10:50:57.626Z,77.60
2022-08-17T10:53:33.459Z,77.60
2022-08-17T10:56:12.110Z,76.10
2022-08-17T10:58:38.732Z,76.10
2022-08-17T11:01:11.472Z,75.10
2022-08-17T11:03:53.363Z,70.90
2022-08-17T11:06:34.373Z,71.60
2022-08-17T11:09:27.556Z,70.40
2022-08-17T11:12:07.208Z,67.20
2022-08-17T11:15:01.186Z,66.00
2022-08-17T11:18:01.449Z,67.40
2022-08-17T11:20:57.453Z,65.10
2022-08-17T11:23:33.158Z,64.80
2022-08-17T11:26:08.512Z,65.30
2022-08-17T11:28:48.751Z,65.00
2022-08-17T11:32:00.407Z,64.90
2022-08-17T11:34:30.185Z,65.30
2022-08-17T11:37:14.629Z,65.50
2022-08-17T11:40:06.073Z,64.80
2022-08-17T11:42:44.357Z,64.10
2022-08-17T11:45:35.499Z,64.60
2022-08-17T11:49:19.187Z,64.90
2022-08-17T11:52:00.365Z,66.20
2022-08-17T11:54:33.776Z,67.30
2022-08-17T11:57:26.665Z,68.70
2022-08-17T11:59:55.216Z,67.90
2022-08-17T12:02:31.651Z,67.30
2022-08-17T12:05:17.464Z,67.70
2022-08-17T12:07:58.943Z,68.60
2022-08-17T12:10:32.243Z,71.30
2022-08-17T12:13:04.011Z,72.70
2022-08-17T12:15:36.023Z,71.90
2022-08-17T12:18:02.818Z,75.00
2022-08-17T12:20:34.858Z,76.90
2022-08-17T12:23:24.364Z,77.60
2022-08-17T12:26:00.951Z,78.20
2022-08-17T12:28:34.682Z,81.90
2022-08-17T12:31:07.627Z,86.00
2022-08-17T12:33:37.342Z,91.80
2022-08-17T12:36:08.526Z,93.70
2022-08-17T12:38:37.992Z,98.20
2022-08-17T12:41:27.126Z,96.30
2022-08-17T12:44:02.249Z,96.50
2022-08-17T12:46:33.525Z,99.90
2022-08-17T12:49:35.766Z,99.90
2022-08-17T12:52:17.177Z,99.90
2022-08-17T12:55:12.261Z,99.90
2022-08-17T12:57:38.945Z,99.90
2022-08-17T13:00:10.729Z,99.90
2022-08-17T13:03:02.463Z,99.90
2022-08-17T13:05:39.340Z,99.90
2022-08-17T13:08:18.865Z,99.90
2022-08-17T13:10:56.475Z,99.90
2022-08-17T13:13:27.390Z,99.90
2022-08-17T13:16:05.800Z,99.90
2022-08-17T13:18:43.170Z,97.10
2022-08-17T13:21:22.152Z,97.30
2022-08-17T13:24:02.311Z,98.10
2022-08-17T13:26:37.122Z,97.20
2022-08-17T13:29:20.751Z,96.70
2022-08-17T13:31:51.986Z,94.80
2022-08-17T13:34:27.944Z,95.10
2022-08-17T13:37:17.199Z,95.70
2022-08-17T13:39:46.458Z,94.50
2022-08-17T13:42:51.728Z,93.80
2022-08-17T13:45:36.924Z,94.50
2022-08-17T13:48:11.888Z,93.50
2022-08-17T13:50:46.805Z,93.40
2022-08-17T13:53:27.171Z,95.00
2022-08-17T13:55:58.352Z,96.30
2022-08-17T13:58:34.924Z,98.30
2022-08-17T14:01:32.743Z,99.90
2022-08-17T14:04:01.453Z,95.80
2022-08-17T14:06:52.367Z,96.50
2022-08-17T14:09:42.539Z,96.90
2022-08-17T14:12:16.289Z,95.50
2022-08-17T14:14:44.461Z,94.30
2022-08-17T14:17:12.050Z,94.80
2022-08-17T14:19:39.577Z,94.30
2022-08-17T14:22:23.634Z,93.20
2022-08-17T14:24:51.313Z,93.70
2022-08-17T14:27:20.430Z,93.40
2022-08-17T14:29:47.753Z,93.00
2022-08-17T14:32:26.753Z,92.90
2022-08-17T14:34:54.840Z,92.50
2022-08-17T14:37:21.979Z,93.10
2022-08-17T14:39:48.719Z,92.80
2022-08-17T14:42:16.369Z,92.60
2022-08-17T14:44:43.155Z,92.50
2022-08-17T14:47:15.898Z,92.10
2022-08-17T14:49:43.642Z,91.40
2022-08-17T14:52:16.087Z,91.50
2022-08-17T14:54:46.024Z,91.00
2022-08-17T14:57:23.731Z,93.10
2022-08-17T15:00:00.005Z,92.50
2022-08-17T15:02:29.326Z,91.60
2022-08-17T15:05:02.374Z,91.70
2022-08-17T15:07:30.675Z,90.80
2022-08-17T15:09:58.705Z,90.40
2022-08-17T15:12:32.236Z,91.20
2022-08-17T15:15:00.994Z,89.90
2022-08-17T15:17:44.678Z,89.30
2022-08-17T15:20:18.630Z,88.80
2022-08-17T15:22:47.041Z,87.40
2022-08-17T15:25:14.600Z,85.20
2022-08-17T15:27:42.044Z,85.40
2022-08-17T15:30:10.027Z,86.00
2022-08-17T15:32:40.540Z,84.50
2022-08-17T15:35:11.738Z,85.60
2022-08-17T15:37:40.157Z,85.40
2022-08-17T15:40:09.115Z,84.60
2022-08-17T15:42:36.304Z,82.10
2022-08-17T15:45:09.355Z,84.10
2022-08-17T15:47:37.039Z,84.00
2022-08-17T15:50:08.741Z,84.30
2022-08-17T15:52:40.063Z,83.20
2022-08-17T15:55:10.197Z,86.70
2022-08-17T15:57:37.146Z,86.80
2022-08-17T16:00:06.085Z,84.60
2022-08-17T16:03:45.352Z,82.80
2022-08-17T16:05:24.940Z,82.00
2022-08-17T16:07:52.933Z,83.70
2022-08-17T16:10:20.009Z,82.40
2022-08-17T16:12:48.600Z,82.60
2022-08-17T16:15:16.316Z,83.00
2022-08-17T16:17:43.190Z,81.80
2022-08-17T16:20:20.712Z,81.70
2022-08-17T16:22:50.204Z,80.70
2022-08-17T16:25:21.560Z,80.10
2022-08-17T16:27:54.385Z,80.90
2022-08-17T16:30:23.718Z,76.60
2022-08-17T16:32:52.852Z,75.80
2022-08-17T16:35:22.616Z,76.30
2022-08-17T16:37:49.315Z,76.50
2022-08-17T16:40:17.565Z,75.30
2022-08-17T16:42:46.009Z,77.20
2022-08-17T16:45:14.637Z,78.10
2022-08-17T16:47:41.959Z,77.90
2022-08-17T16:50:12.190Z,78.50
2022-08-17T16:52:38.963Z,77.80
2022-08-17T16:55:07.722Z,81.30
2022-08-17T16:57:37.335Z,80.40
2022-08-17T17:00:15.990Z,79.80
2022-08-17T17:02:47.896Z,80.30
2022-08-17T17:05:43.341Z,82.10
2022-08-17T17:08:30.436Z,83.20
2022-08-17T17:11:03.764Z,83.00
2022-08-17T17:14:06.926Z,84.10
2022-08-17T17:16:36.337Z,86.90
2022-08-17T17:19:34.938Z,89.60
2022-08-17T17:22:14.979Z,89.80
2022-08-17T17:24:55.627Z,88.60
2022-08-17T17:27:39.356Z,88.70
2022-08-17T17:30:16.392Z,90.30
2022-08-17T17:33:04.672Z,91.20
2022-08-17T17:35:53.507Z,91.60
2022-08-17T17:38:34.306Z,91.20
2022-08-17T17:41:05.422Z,92.00
2022-08-17T17:43:39.700Z,92.60
2022-08-17T17:46:38.619Z,93.30
2022-08-17T17:49:06.187Z,92.90
2022-08-17T17:52:08.764Z,92.40
2022-08-17T17:55:02.748Z,91.90
2022-08-17T17:57:38.333Z,91.40
2022-08-17T18:00:12.618Z,92.40
2022-08-17T18:02:51.295Z,92.20
2022-08-17T18:05:36.727Z,94.20
2022-08-17T18:08:32.304Z,95.00
2022-08-17T18:11:24.422Z,95.80
2022-08-17T18:14:22.186Z,96.10
2022-08-17T18:16:55.122Z,96.60
2022-08-17T18:19:25.344Z,96.70
2022-08-17T18:22:14.063Z,97.60
2022-08-17T18:24:44.978Z,97.60
2022-08-17T18:27:23.347Z,98.30
2022-08-17T18:29:53.462Z,98.90
2022-08-17T18:32:31.809Z,99.20
2022-08-17T18:35:00.427Z,99.80
2022-08-17T18:37:47.477Z,99.90
2022-08-17T18:40:17.583Z,99.90
2022-08-17T18:43:05.167Z,99.90
2022-08-17T18:45:46.583Z,99.90
2022-08-17T18:48:27.402Z,99.90
2022-08-17T18:51:00.086Z,99.90
2022-08-17T18:53:30.325Z,99.90
2022-08-17T18:56:30.683Z,99.90
2022-08-17T18:58:57.736Z,99.90
2022-08-17T19:01:47.034Z,99.90
2022-08-17T19:04:26.938Z,99.90
2022-08-17T19:07:25.882Z,99.90
2022-08-17T19:10:14.794Z,99.90
2022-08-17T19:13:12.531Z,99.90
2022-08-17T19:15:45.591Z,99.90
2022-08-17T19:18:37.027Z,99.90
2022-08-17T19:21:07.743Z,99.90
2022-08-17T19:24:05.425Z,99.90
2022-08-17T19:26:53.852Z,99.90
2022-08-17T19:29:42.944Z,99.90
2022-08-17T19:32:11.269Z,99.90
2022-08-17T19:34:39.485Z,99.90
2022-08-17T19:37:28.629Z,99.90
2022-08-17T19:40:35.164Z,99.90
2022-08-17T19:43:18.864Z,99.90
2022-08-17T19:46:07.374Z,99.90
2022-08-17T19:48:51.948Z,99.90
2022-08-17T19:51:35.911Z,99.90
2022-08-17T19:54:06.989Z,99.90
2022-08-17T19:56:33.933Z,99.90
2022-08-17T19:59:10.591Z,99.90
2022-08-17T20:01:46.720Z,99.90
2022-08-17T20:04:25.904Z,99.90
2022-08-17T20:07:19.547Z,99.90
2022-08-17T20:09:55.235Z,99.90
2022-08-17T20:12:27.468Z,99.90
2022-08-17T20:15:00.231Z,99.90
2022-08-17T20:17:35.049Z,99.90
2022-08-17T20:20:20.539Z,99.90
2022-08-17T20:23:22.955Z,99.90
2022-08-17T20:26:07.952Z,99.90
2022-08-17T20:28:39.006Z,99.90
2022-08-17T20:31:47.523Z,99.90
2022-08-17T20:34:37.066Z,99.90
2022-08-17T20:37:24.664Z,99.90
2022-08-17T20:39:52.534Z,99.90
2022-08-17T20:42:22.370Z,99.90
2022-08-17T20:44:58.027Z,99.90
2022-08-17T20:47:32.081Z,99.90
2022-08-17T20:50:08.041Z,99.90
2022-08-17T20:52:47.917Z,99.90
2022-08-17T20:55:52.434Z,99.90
2022-08-17T20:58:29.961Z,99.90
2022-08-17T21:00:57.773Z,99.90
2022-08-17T21:03:25.306Z,99.90
2022-08-17T21:06:14.440Z,99.90
2022-08-17T21:09:13.008Z,99.90
2022-08-17T21:12:02.765Z,99.90
2022-08-17T21:15:13.332Z,99.90
2022-08-17T21:18:14.890Z,99.90
2022-08-17T21:20:57.271Z,99.90
2022-08-17T21:23:59.955Z,99.90
2022-08-17T21:26:50.395Z,99.90
2022-08-17T21:29:31.515Z,99.90
2022-08-17T21:31:59.364Z,99.90
2022-08-17T21:34:32.973Z,99.90
2022-08-17T21:37:18.588Z,99.90
2022-08-17T21:39:51.338Z,99.90
2022-08-17T21:42:24.674Z,99.90
2022-08-17T21:44:56.076Z,99.90
2022-08-17T21:47:26.137Z,99.90
2022-08-17T21:49:55.025Z,99.90
2022-08-17T21:52:25.463Z,99.90
2022-08-17T21:55:00.273Z,99.90
2022-08-17T21:57:28.771Z,99.90
2022-08-17T21:59:58.402Z,99.90
2022-08-17T22:02:30.501Z,99.90
2022-08-17T22:05:03.519Z,99.90
2022-08-17T22:07:39.505Z,99.90
2022-08-17T22:10:09.071Z,99.90
2022-08-17T22:12:35.841Z,99.90
2022-08-17T22:15:06.087Z,99.90
2022-08-17T22:17:36.525Z,99.90
2022-08-17T22:20:14.466Z,99.90
2022-08-17T22:23:24.870Z,99.90
2022-08-17T22:26:00.903Z,99.90
2022-08-17T22:28:49.094Z,99.90
2022-08-17T22:31:21.676Z,99.90
2022-08-17T22:33:51.290Z,99.90
2022-08-17T22:36:38.737Z,99.90
2022-08-17T22:39:10.896Z,99.90
2022-08-17T22:41:47.052Z,99.90
2022-08-17T22:44:19.881Z,99.90
2022-08-17T22:46:52.104Z,99.90
2022-08-17T22:49:38.452Z,99.90
2022-08-17T22:52:23.556Z,99.90
2022-08-17T22:55:34.696Z,99.90
2022-08-17T22:58:21.396Z,99.90
2022-08-17T23:00:49.614Z,99.90
2022-08-17T23:03:25.598Z,99.90
2022-08-17T23:06:10.912Z,99.90
2022-08-17T23:08:54.676Z,99.90
2022-08-17T23:11:36.698Z,99.90
2022-08-17T23:14:15.800Z,99.90
2022-08-17T23:16:42.619Z,99.90
2022-08-17T23:19:11.282Z,99.90
2022-08-17T23:21:38.331Z,99.90
2022-08-17T23:24:07.444Z,99.90
2022-08-17T23:26:37.905Z,99.90
2022-08-17T23:29:06.410Z,99.90
2022-08-17T23:31:34.781Z,99.90
2022-08-17T23:34:03.415Z,99.90
2022-08-17T23:36:31.644Z,99.90
2022-08-17T23:38:58.371Z,99.90
2022-08-17T23:41:30.209Z,99.90
2022-08-17T23:43:56.988Z,99.90
2022-08-17T23:46:24.386Z,99.90
2022-08-17T23:48:54.332Z,99.90
2022-08-17T23:51:24.727Z,99.90
2022-08-17T23:53:55.840Z,99.90
2022-08-17T23:56:26.090Z,99.90
2022-08-17T23:58:58.479Z,99.90
